RJTY/OKO METAR and TAF weather

Enter ICAO airport designator
Station Type Date Time Source
RJTY METAR 2020/01/18 23:56 UTC NOAA

RJTY 182356Z AUTO 00000KT 10SM CLR 04/00 A3002 RMK AO2 SLP176 70010 T00411005 10041 21023 50013 FZRANO $


Station Type Date Time Source
RJTY Decoded METAR 2020/01/18 23:56 UTC NOAA

Yokota Ab, Japan (RJTY) 35-45N 139-21E 142M
Jan 18, 2020 - 06:56 PM EST / 2020.01.18 2356 UTC
Wind: Calm:0
Visibility: 10 mile(s):0
Sky conditions: clear
Temperature: 39.4 F (4.1 C)
Dew Point: 31.1 F (-0.5 C)
Relative Humidity: 71%
Pressure (altimeter): 30.02 in. Hg (1016 hPa)
Pressure tendency: 0.04 inches (1.3 hPa) higher than three hours ago
ob: RJTY 182356Z AUTO 00000KT 10SM CLR 04/00 A3002 RMK AO2 SLP176 70010 T00411005 10041 21023 50013 FZRANO
cycle: 0

Station Type Date Time Source
RJTY TAF 2020/01/18 23:15 UTC NOAA

TAF TAF
AMD RJTY 182308Z 1823/2003 VRB06KT 9999 SCT020 QNH2987INS
BECMG 1903/1905 16009KT 9999 SCT030 QNH2995INS
BECMG 1911/1912 VRB06KT 9999 FEW020 QNH2987INS TX07/1906Z TNM01/1921Z LAST NO
AMDS AFT 1823 NEXT 1907

Example: see airport list